sensor_id;sensor_type;location;lat;lon;timestamp;P1;durP1;ratioP1;P2;durP2;ratioP2
2548;SDS011;1284;53.520;10.248;2022-10-16T00:01:45;4.35;;;1.92;;
2548;SDS011;1284;53.520;10.248;2022-10-16T00:04:11;3.13;;;1.67;;
2548;SDS011;1284;53.520;10.248;2022-10-16T00:06:37;3.45;;;2.00;;
2548;SDS011;1284;53.520;10.248;2022-10-16T00:09:03;5.00;;;1.92;;
2548;SDS011;1284;53.520;10.248;2022-10-16T00:11:30;4.20;;;2.10;;
2548;SDS011;1284;53.520;10.248;2022-10-16T00:14:03;2.90;;;1.90;;
2548;SDS011;1284;53.520;10.248;2022-10-16T00:16:30;4.00;;;2.38;;
2548;SDS011;1284;53.520;10.248;2022-10-16T00:18:56;4.38;;;2.30;;
2548;SDS011;1284;53.520;10.248;2022-10-16T00:21:24;3.95;;;2.40;;
2548;SDS011;1284;53.520;10.248;2022-10-16T00:23:57;3.90;;;1.77;;
2548;SDS011;1284;53.520;10.248;2022-10-16T00:26:24;4.40;;;2.45;;
2548;SDS011;1284;53.520;10.248;2022-10-16T00:28:51;3.30;;;1.88;;
2548;SDS011;1284;53.520;10.248;2022-10-16T00:31:18;5.15;;;2.00;;
2548;SDS011;1284;53.520;10.248;2022-10-16T00:33:46;4.30;;;1.90;;
2548;SDS011;1284;53.520;10.248;2022-10-16T00:36:13;2.90;;;1.50;;
2548;SDS011;1284;53.520;10.248;2022-10-16T00:38:40;3.67;;;1.95;;
2548;SDS011;1284;53.520;10.248;2022-10-16T00:41:07;2.60;;;1.67;;
2548;SDS011;1284;53.520;10.248;2022-10-16T00:48:40;2.15;;;1.48;;
2548;SDS011;1284;53.520;10.248;2022-10-16T00:51:11;2.88;;;1.60;;
2548;SDS011;1284;53.520;10.248;2022-10-16T00:53:37;4.03;;;1.85;;
2548;SDS011;1284;53.520;10.248;2022-10-16T00:56:03;2.05;;;1.38;;
2548;SDS011;1284;53.520;10.248;2022-10-16T00:58:29;3.03;;;1.70;;
2548;SDS011;1284;53.520;10.248;2022-10-16T01:00:54;2.78;;;1.63;;
2548;SDS011;1284;53.520;10.248;2022-10-16T01:03:25;4.22;;;1.60;;
2548;SDS011;1284;53.520;10.248;2022-10-16T01:11:31;2.17;;;1.27;;
2548;SDS011;1284;53.520;10.248;2022-10-16T01:14:22;3.15;;;1.73;;
2548;SDS011;1284;53.520;10.248;2022-10-16T01:17:15;2.83;;;1.17;;
2548;SDS011;1284;53.520;10.248;2022-10-16T01:22:16;5.00;;;1.60;;
2548;SDS011;1284;53.520;10.248;2022-10-16T01:24:46;2.85;;;1.50;;
2548;SDS011;1284;53.520;10.248;2022-10-16T01:29:53;5.20;;;1.58;;
2548;SDS011;1284;53.520;10.248;2022-10-16T01:37:42;1.45;;;1.27;;
2548;SDS011;1284;53.520;10.248;2022-10-16T01:40:16;1.70;;;0.93;;
2548;SDS011;1284;53.520;10.248;2022-10-16T01:42:45;1.77;;;1.23;;
2548;SDS011;1284;53.520;10.248;2022-10-16T01:45:15;2.88;;;1.05;;
2548;SDS011;1284;53.520;10.248;2022-10-16T01:47:44;1.20;;;0.93;;
2548;SDS011;1284;53.520;10.248;2022-10-16T01:50:11;2.25;;;0.80;;
2548;SDS011;1284;53.520;10.248;2022-10-16T01:52:40;2.25;;;1.15;;
2548;SDS011;1284;53.520;10.248;2022-10-16T01:55:08;2.30;;;1.10;;
2548;SDS011;1284;53.520;10.248;2022-10-16T01:57:38;1.38;;;0.73;;
2548;SDS011;1284;53.520;10.248;2022-10-16T02:00:08;1.30;;;0.80;;
2548;SDS011;1284;53.520;10.248;2022-10-16T02:02:40;2.15;;;0.98;;
2548;SDS011;1284;53.520;10.248;2022-10-16T02:05:12;4.63;;;0.90;;
2548;SDS011;1284;53.520;10.248;2022-10-16T02:07:45;1.55;;;0.90;;
2548;SDS011;1284;53.520;10.248;2022-10-16T02:10:10;3.08;;;0.95;;
2548;SDS011;1284;53.520;10.248;2022-10-16T02:12:37;1.63;;;0.82;;
2548;SDS011;1284;53.520;10.248;2022-10-16T02:15:06;1.85;;;0.57;;
2548;SDS011;1284;53.520;10.248;2022-10-16T02:17:32;1.17;;;0.75;;
2548;SDS011;1284;53.520;10.248;2022-10-16T02:19:58;1.50;;;0.80;;
2548;SDS011;1284;53.520;10.248;2022-10-16T02:25:16;1.05;;;0.90;;
2548;SDS011;1284;53.520;10.248;2022-10-16T02:27:49;4.30;;;0.80;;
2548;SDS011;1284;53.520;10.248;2022-10-16T02:30:27;1.25;;;0.73;;
2548;SDS011;1284;53.520;10.248;2022-10-16T02:32:57;1.48;;;0.70;;
2548;SDS011;1284;53.520;10.248;2022-10-16T02:35:25;0.95;;;0.60;;
2548;SDS011;1284;53.520;10.248;2022-10-16T02:37:52;2.35;;;0.57;;
2548;SDS011;1284;53.520;10.248;2022-10-16T02:40:19;1.23;;;0.50;;
2548;SDS011;1284;53.520;10.248;2022-10-16T02:42:49;0.85;;;0.57;;
2548;SDS011;1284;53.520;10.248;2022-10-16T02:45:16;2.10;;;0.90;;
2548;SDS011;1284;53.520;10.248;2022-10-16T02:47:42;1.88;;;0.90;;
2548;SDS011;1284;53.520;10.248;2022-10-16T02:50:07;1.00;;;0.70;;
2548;SDS011;1284;53.520;10.248;2022-10-16T02:52:33;6.60;;;0.73;;
2548;SDS011;1284;53.520;10.248;2022-10-16T02:54:58;1.13;;;0.68;;
2548;SDS011;1284;53.520;10.248;2022-10-16T02:57:24;0.93;;;0.70;;
2548;SDS011;1284;53.520;10.248;2022-10-16T02:59:49;5.25;;;0.73;;
2548;SDS011;1284;53.520;10.248;2022-10-16T03:02:15;0.68;;;0.50;;
2548;SDS011;1284;53.520;10.248;2022-10-16T03:04:40;0.80;;;0.60;;
2548;SDS011;1284;53.520;10.248;2022-10-16T03:07:06;1.10;;;0.57;;
2548;SDS011;1284;53.520;10.248;2022-10-16T03:09:32;2.38;;;1.35;;
2548;SDS011;1284;53.520;10.248;2022-10-16T03:11:58;1.40;;;0.70;;
2548;SDS011;1284;53.520;10.248;2022-10-16T03:14:23;0.50;;;0.50;;
2548;SDS011;1284;53.520;10.248;2022-10-16T03:16:49;1.92;;;0.90;;
2548;SDS011;1284;53.520;10.248;2022-10-16T03:19:15;0.40;;;0.40;;
2548;SDS011;1284;53.520;10.248;2022-10-16T03:21:42;1.35;;;0.60;;
2548;SDS011;1284;53.520;10.248;2022-10-16T03:24:07;2.22;;;0.82;;
2548;SDS011;1284;53.520;10.248;2022-10-16T03:26:33;0.55;;;0.40;;
2548;SDS011;1284;53.520;10.248;2022-10-16T03:28:58;0.75;;;0.68;;
2548;SDS011;1284;53.520;10.248;2022-10-16T03:31:24;2.42;;;0.52;;
2548;SDS011;1284;53.520;10.248;2022-10-16T03:33:49;0.77;;;0.60;;
2548;SDS011;1284;53.520;10.248;2022-10-16T03:36:14;2.45;;;0.50;;
2548;SDS011;1284;53.520;10.248;2022-10-16T03:38:40;0.70;;;0.70;;
2548;SDS011;1284;53.520;10.248;2022-10-16T03:41:05;0.77;;;0.50;;
2548;SDS011;1284;53.520;10.248;2022-10-16T03:43:32;2.55;;;0.75;;
2548;SDS011;1284;53.520;10.248;2022-10-16T03:45:58;2.88;;;0.70;;
2548;SDS011;1284;53.520;10.248;2022-10-16T03:48:24;0.60;;;0.50;;
2548;SDS011;1284;53.520;10.248;2022-10-16T03:50:49;1.20;;;0.70;;
2548;SDS011;1284;53.520;10.248;2022-10-16T03:53:16;1.35;;;0.70;;
2548;SDS011;1284;53.520;10.248;2022-10-16T03:55:42;0.65;;;0.50;;
2548;SDS011;1284;53.520;10.248;2022-10-16T03:58:09;2.35;;;0.55;;
2548;SDS011;1284;53.520;10.248;2022-10-16T04:00:34;1.58;;;0.73;;
2548;SDS011;1284;53.520;10.248;2022-10-16T04:03:00;0.57;;;0.30;;
2548;SDS011;1284;53.520;10.248;2022-10-16T04:05:25;3.70;;;0.70;;
2548;SDS011;1284;53.520;10.248;2022-10-16T04:07:51;2.50;;;0.85;;
2548;SDS011;1284;53.520;10.248;2022-10-16T04:10:17;0.98;;;0.47;;
2548;SDS011;1284;53.520;10.248;2022-10-16T04:12:42;0.68;;;0.50;;
2548;SDS011;1284;53.520;10.248;2022-10-16T04:15:08;0.50;;;0.40;;
2548;SDS011;1284;53.520;10.248;2022-10-16T04:17:33;1.67;;;0.50;;
2548;SDS011;1284;53.520;10.248;2022-10-16T04:19:59;0.40;;;0.40;;
2548;SDS011;1284;53.520;10.248;2022-10-16T04:22:24;0.65;;;0.40;;
2548;SDS011;1284;53.520;10.248;2022-10-16T04:24:50;4.95;;;1.42;;
2548;SDS011;1284;53.520;10.248;2022-10-16T04:27:15;0.75;;;0.60;;
2548;SDS011;1284;53.520;10.248;2022-10-16T04:29:41;0.65;;;0.65;;
2548;SDS011;1284;53.520;10.248;2022-10-16T04:32:07;0.70;;;0.50;;
2548;SDS011;1284;53.520;10.248;2022-10-16T04:34:34;3.20;;;0.50;;
2548;SDS011;1284;53.520;10.248;2022-10-16T04:37:02;0.47;;;0.47;;
2548;SDS011;1284;53.520;10.248;2022-10-16T04:39:27;0.57;;;0.57;;
2548;SDS011;1284;53.520;10.248;2022-10-16T04:41:56;0.95;;;0.50;;
2548;SDS011;1284;53.520;10.248;2022-10-16T04:44:21;2.17;;;0.80;;
2548;SDS011;1284;53.520;10.248;2022-10-16T04:46:47;3.03;;;0.52;;
2548;SDS011;1284;53.520;10.248;2022-10-16T04:49:12;3.75;;;0.47;;
2548;SDS011;1284;53.520;10.248;2022-10-16T04:51:38;0.80;;;0.50;;
2548;SDS011;1284;53.520;10.248;2022-10-16T04:54:03;1.85;;;0.52;;
2548;SDS011;1284;53.520;10.248;2022-10-16T04:56:29;1.98;;;0.60;;
2548;SDS011;1284;53.520;10.248;2022-10-16T04:58:54;5.55;;;0.65;;
2548;SDS011;1284;53.520;10.248;2022-10-16T05:01:20;3.28;;;0.70;;
2548;SDS011;1284;53.520;10.248;2022-10-16T05:03:45;1.25;;;0.50;;
2548;SDS011;1284;53.520;10.248;2022-10-16T05:06:11;1.65;;;0.45;;
2548;SDS011;1284;53.520;10.248;2022-10-16T05:08:36;0.30;;;0.30;;
2548;SDS011;1284;53.520;10.248;2022-10-16T05:11:01;0.60;;;0.60;;
2548;SDS011;1284;53.520;10.248;2022-10-16T05:13:27;1.38;;;0.68;;
2548;SDS011;1284;53.520;10.248;2022-10-16T05:15:52;1.92;;;0.50;;
2548;SDS011;1284;53.520;10.248;2022-10-16T05:18:18;1.30;;;0.57;;
2548;SDS011;1284;53.520;10.248;2022-10-16T05:20:44;0.65;;;0.60;;
2548;SDS011;1284;53.520;10.248;2022-10-16T05:23:09;1.83;;;0.70;;
2548;SDS011;1284;53.520;10.248;2022-10-16T05:25:35;2.15;;;0.60;;
2548;SDS011;1284;53.520;10.248;2022-10-16T05:28:01;1.20;;;0.55;;
2548;SDS011;1284;53.520;10.248;2022-10-16T05:30:27;1.00;;;0.60;;
2548;SDS011;1284;53.520;10.248;2022-10-16T05:32:52;1.60;;;1.05;;
2548;SDS011;1284;53.520;10.248;2022-10-16T05:35:18;1.38;;;0.68;;
2548;SDS011;1284;53.520;10.248;2022-10-16T05:37:44;2.30;;;0.70;;
2548;SDS011;1284;53.520;10.248;2022-10-16T05:40:10;3.28;;;1.02;;
2548;SDS011;1284;53.520;10.248;2022-10-16T05:42:36;1.70;;;0.85;;
2548;SDS011;1284;53.520;10.248;2022-10-16T05:45:03;1.55;;;0.70;;
2548;SDS011;1284;53.520;10.248;2022-10-16T05:47:29;2.80;;;0.65;;
2548;SDS011;1284;53.520;10.248;2022-10-16T05:49:55;2.60;;;0.68;;
2548;SDS011;1284;53.520;10.248;2022-10-16T05:52:20;2.22;;;0.90;;
2548;SDS011;1284;53.520;10.248;2022-10-16T05:54:46;3.45;;;0.80;;
2548;SDS011;1284;53.520;10.248;2022-10-16T05:57:11;0.77;;;0.65;;
2548;SDS011;1284;53.520;10.248;2022-10-16T05:59:37;0.82;;;0.73;;
2548;SDS011;1284;53.520;10.248;2022-10-16T06:02:03;3.22;;;1.02;;
2548;SDS011;1284;53.520;10.248;2022-10-16T06:04:28;1.00;;;0.45;;
2548;SDS011;1284;53.520;10.248;2022-10-16T06:06:54;0.50;;;0.50;;
2548;SDS011;1284;53.520;10.248;2022-10-16T06:09:26;0.80;;;0.60;;
2548;SDS011;1284;53.520;10.248;2022-10-16T06:11:51;0.82;;;0.60;;
2548;SDS011;1284;53.520;10.248;2022-10-16T06:14:16;2.67;;;0.80;;
2548;SDS011;1284;53.520;10.248;2022-10-16T06:16:42;2.65;;;0.75;;
2548;SDS011;1284;53.520;10.248;2022-10-16T06:19:08;0.98;;;0.52;;
2548;SDS011;1284;53.520;10.248;2022-10-16T06:21:34;1.30;;;0.70;;
2548;SDS011;1284;53.520;10.248;2022-10-16T06:23:59;0.85;;;0.57;;
2548;SDS011;1284;53.520;10.248;2022-10-16T06:26:26;0.40;;;0.40;;
2548;SDS011;1284;53.520;10.248;2022-10-16T06:28:54;1.95;;;0.73;;
2548;SDS011;1284;53.520;10.248;2022-10-16T06:31:21;1.77;;;0.77;;
2548;SDS011;1284;53.520;10.248;2022-10-16T06:33:50;2.28;;;0.57;;
2548;SDS011;1284;53.520;10.248;2022-10-16T06:36:16;2.60;;;0.93;;
2548;SDS011;1284;53.520;10.248;2022-10-16T06:38:42;1.35;;;0.73;;
2548;SDS011;1284;53.520;10.248;2022-10-16T06:41:13;0.75;;;0.60;;
2548;SDS011;1284;53.520;10.248;2022-10-16T06:43:40;6.57;;;0.95;;
2548;SDS011;1284;53.520;10.248;2022-10-16T06:46:06;2.88;;;0.80;;
2548;SDS011;1284;53.520;10.248;2022-10-16T06:48:34;1.83;;;0.85;;
2548;SDS011;1284;53.520;10.248;2022-10-16T06:51:01;1.52;;;0.80;;
2548;SDS011;1284;53.520;10.248;2022-10-16T06:53:29;0.95;;;0.63;;
2548;SDS011;1284;53.520;10.248;2022-10-16T06:55:56;1.73;;;0.95;;
2548;SDS011;1284;53.520;10.248;2022-10-16T06:58:22;1.65;;;1.30;;
2548;SDS011;1284;53.520;10.248;2022-10-16T07:00:48;3.70;;;0.82;;
2548;SDS011;1284;53.520;10.248;2022-10-16T07:03:13;2.00;;;0.93;;
2548;SDS011;1284;53.520;10.248;2022-10-16T07:05:40;1.98;;;1.23;;
2548;SDS011;1284;53.520;10.248;2022-10-16T07:08:07;4.32;;;1.25;;
2548;SDS011;1284;53.520;10.248;2022-10-16T07:10:33;1.00;;;0.85;;
2548;SDS011;1284;53.520;10.248;2022-10-16T07:12:59;1.73;;;0.98;;
2548;SDS011;1284;53.520;10.248;2022-10-16T07:15:25;2.50;;;0.82;;
2548;SDS011;1284;53.520;10.248;2022-10-16T07:17:51;3.90;;;1.02;;
2548;SDS011;1284;53.520;10.248;2022-10-16T07:20:16;2.63;;;0.82;;
2548;SDS011;1284;53.520;10.248;2022-10-16T07:22:42;2.25;;;1.13;;
2548;SDS011;1284;53.520;10.248;2022-10-16T07:25:08;1.80;;;1.00;;
2548;SDS011;1284;53.520;10.248;2022-10-16T07:27:33;1.23;;;0.90;;
2548;SDS011;1284;53.520;10.248;2022-10-16T07:29:59;1.75;;;1.02;;
2548;SDS011;1284;53.520;10.248;2022-10-16T07:32:25;1.83;;;1.00;;
2548;SDS011;1284;53.520;10.248;2022-10-16T07:34:51;2.40;;;0.82;;
2548;SDS011;1284;53.520;10.248;2022-10-16T07:37:17;1.88;;;0.90;;
2548;SDS011;1284;53.520;10.248;2022-10-16T07:39:42;4.22;;;0.98;;
2548;SDS011;1284;53.520;10.248;2022-10-16T07:42:08;1.05;;;0.70;;
2548;SDS011;1284;53.520;10.248;2022-10-16T07:44:33;4.55;;;1.83;;
2548;SDS011;1284;53.520;10.248;2022-10-16T07:46:58;3.67;;;1.20;;
2548;SDS011;1284;53.520;10.248;2022-10-16T07:49:24;0.90;;;0.70;;
2548;SDS011;1284;53.520;10.248;2022-10-16T07:51:49;1.63;;;0.80;;
2548;SDS011;1284;53.520;10.248;2022-10-16T07:54:15;1.75;;;0.82;;
2548;SDS011;1284;53.520;10.248;2022-10-16T07:56:40;1.13;;;0.70;;
2548;SDS011;1284;53.520;10.248;2022-10-16T07:59:06;1.88;;;0.63;;
2548;SDS011;1284;53.520;10.248;2022-10-16T08:01:31;0.57;;;0.47;;
2548;SDS011;1284;53.520;10.248;2022-10-16T08:03:57;1.45;;;0.90;;
2548;SDS011;1284;53.520;10.248;2022-10-16T08:06:22;1.50;;;0.80;;
2548;SDS011;1284;53.520;10.248;2022-10-16T08:08:48;0.88;;;0.50;;
2548;SDS011;1284;53.520;10.248;2022-10-16T08:11:14;1.45;;;0.75;;
2548;SDS011;1284;53.520;10.248;2022-10-16T08:13:40;1.27;;;0.50;;
2548;SDS011;1284;53.520;10.248;2022-10-16T08:16:06;0.80;;;0.70;;
2548;SDS011;1284;53.520;10.248;2022-10-16T08:18:34;1.05;;;0.63;;
2548;SDS011;1284;53.520;10.248;2022-10-16T08:21:00;2.08;;;0.60;;
2548;SDS011;1284;53.520;10.248;2022-10-16T08:23:27;0.52;;;0.43;;
2548;SDS011;1284;53.520;10.248;2022-10-16T08:25:53;2.80;;;1.40;;
2548;SDS011;1284;53.520;10.248;2022-10-16T08:28:20;1.63;;;0.68;;
2548;SDS011;1284;53.520;10.248;2022-10-16T08:30:46;2.15;;;0.77;;
2548;SDS011;1284;53.520;10.248;2022-10-16T08:33:12;6.82;;;0.68;;
2548;SDS011;1284;53.520;10.248;2022-10-16T08:35:37;0.50;;;0.50;;
2548;SDS011;1284;53.520;10.248;2022-10-16T08:38:03;0.65;;;0.50;;
2548;SDS011;1284;53.520;10.248;2022-10-16T08:40:30;0.68;;;0.45;;
2548;SDS011;1284;53.520;10.248;2022-10-16T08:48:53;0.90;;;0.70;;
2548;SDS011;1284;53.520;10.248;2022-10-16T08:51:35;0.60;;;0.57;;
2548;SDS011;1284;53.520;10.248;2022-10-16T08:54:22;0.93;;;0.70;;
2548;SDS011;1284;53.520;10.248;2022-10-16T08:56:56;0.75;;;0.57;;
2548;SDS011;1284;53.520;10.248;2022-10-16T08:59:26;1.52;;;0.30;;
2548;SDS011;1284;53.520;10.248;2022-10-16T09:01:52;0.88;;;0.43;;
2548;SDS011;1284;53.520;10.248;2022-10-16T09:06:56;0.43;;;0.40;;
2548;SDS011;1284;53.520;10.248;2022-10-16T09:15:07;0.57;;;0.30;;
2548;SDS011;1284;53.520;10.248;2022-10-16T09:18:10;0.68;;;0.40;;
2548;SDS011;1284;53.520;10.248;2022-10-16T09:20:45;0.40;;;0.32;;
2548;SDS011;1284;53.520;10.248;2022-10-16T09:23:22;0.75;;;0.50;;
2548;SDS011;1284;53.520;10.248;2022-10-16T09:25:52;1.27;;;0.55;;
2548;SDS011;1284;53.520;10.248;2022-10-16T09:28:19;1.10;;;0.45;;
2548;SDS011;1284;53.520;10.248;2022-10-16T09:30:45;0.50;;;0.38;;
2548;SDS011;1284;53.520;10.248;2022-10-16T09:33:12;0.30;;;0.30;;
2548;SDS011;1284;53.520;10.248;2022-10-16T09:35:43;0.43;;;0.43;;
2548;SDS011;1284;53.520;10.248;2022-10-16T09:38:20;0.68;;;0.45;;
2548;SDS011;1284;53.520;10.248;2022-10-16T09:40:47;0.60;;;0.40;;
2548;SDS011;1284;53.520;10.248;2022-10-16T09:45:38;1.98;;;0.60;;
2548;SDS011;1284;53.520;10.248;2022-10-16T09:48:10;0.80;;;0.40;;
2548;SDS011;1284;53.520;10.248;2022-10-16T09:50:37;0.63;;;0.50;;
2548;SDS011;1284;53.520;10.248;2022-10-16T09:53:12;1.02;;;0.40;;
2548;SDS011;1284;53.520;10.248;2022-10-16T09:55:49;0.85;;;0.55;;
2548;SDS011;1284;53.520;10.248;2022-10-16T09:58:15;0.63;;;0.50;;
2548;SDS011;1284;53.520;10.248;2022-10-16T10:00:41;0.30;;;0.30;;
2548;SDS011;1284;53.520;10.248;2022-10-16T10:03:15;0.55;;;0.30;;
2548;SDS011;1284;53.520;10.248;2022-10-16T10:06:05;0.38;;;0.35;;
2548;SDS011;1284;53.520;10.248;2022-10-16T10:10:56;2.60;;;0.30;;
2548;SDS011;1284;53.520;10.248;2022-10-16T10:13:22;0.20;;;0.20;;
2548;SDS011;1284;53.520;10.248;2022-10-16T10:15:49;0.25;;;0.25;;
2548;SDS011;1284;53.520;10.248;2022-10-16T10:18:16;0.30;;;0.30;;
2548;SDS011;1284;53.520;10.248;2022-10-16T10:20:45;0.68;;;0.40;;
2548;SDS011;1284;53.520;10.248;2022-10-16T10:23:21;0.45;;;0.43;;
2548;SDS011;1284;53.520;10.248;2022-10-16T10:28:52;0.70;;;0.55;;
2548;SDS011;1284;53.520;10.248;2022-10-16T10:37:04;1.20;;;0.50;;
2548;SDS011;1284;53.520;10.248;2022-10-16T10:39:57;0.63;;;0.30;;
2548;SDS011;1284;53.520;10.248;2022-10-16T10:42:44;2.03;;;0.30;;
2548;SDS011;1284;53.520;10.248;2022-10-16T10:45:18;0.22;;;0.20;;
2548;SDS011;1284;53.520;10.248;2022-10-16T10:58:39;2.17;;;0.30;;
2548;SDS011;1284;53.520;10.248;2022-10-16T11:01:17;0.80;;;0.20;;
2548;SDS011;1284;53.520;10.248;2022-10-16T11:06:23;2.88;;;0.10;;
2548;SDS011;1284;53.520;10.248;2022-10-16T11:09:02;1.65;;;0.22;;
2548;SDS011;1284;53.520;10.248;2022-10-16T11:16:57;2.72;;;0.20;;
2548;SDS011;1284;53.520;10.248;2022-10-16T11:22:03;0.20;;;0.20;;
2548;SDS011;1284;53.520;10.248;2022-10-16T11:28:10;4.32;;;0.47;;
2548;SDS011;1284;53.520;10.248;2022-10-16T11:30:49;0.30;;;0.20;;
2548;SDS011;1284;53.520;10.248;2022-10-16T11:33:22;0.23;;;0.20;;
2548;SDS011;1284;53.520;10.248;2022-10-16T11:36:12;2.00;;;0.10;;
2548;SDS011;1284;53.520;10.248;2022-10-16T11:49:45;0.10;;;0.10;;
2548;SDS011;1284;53.520;10.248;2022-10-16T11:52:17;0.22;;;0.10;;
2548;SDS011;1284;53.520;10.248;2022-10-16T11:54:52;0.98;;;0.38;;
2548;SDS011;1284;53.520;10.248;2022-10-16T11:57:23;0.20;;;0.17;;
2548;SDS011;1284;53.520;10.248;2022-10-16T11:59:55;0.30;;;0.20;;
2548;SDS011;1284;53.520;10.248;2022-10-16T12:02:33;0.50;;;0.25;;
2548;SDS011;1284;53.520;10.248;2022-10-16T12:05:06;0.57;;;0.20;;
2548;SDS011;1284;53.520;10.248;2022-10-16T12:10:38;1.55;;;0.20;;
2548;SDS011;1284;53.520;10.248;2022-10-16T12:18:37;0.30;;;0.20;;
2548;SDS011;1284;53.520;10.248;2022-10-16T12:21:05;0.40;;;0.30;;
2548;SDS011;1284;53.520;10.248;2022-10-16T12:23:33;0.25;;;0.20;;
2548;SDS011;1284;53.520;10.248;2022-10-16T12:26:03;0.75;;;0.30;;
2548;SDS011;1284;53.520;10.248;2022-10-16T12:28:30;0.45;;;0.30;;
2548;SDS011;1284;53.520;10.248;2022-10-16T12:31:02;0.40;;;0.22;;
2548;SDS011;1284;53.520;10.248;2022-10-16T12:33:30;0.35;;;0.22;;
2548;SDS011;1284;53.520;10.248;2022-10-16T12:35:59;1.08;;;0.40;;
2548;SDS011;1284;53.520;10.248;2022-10-16T12:38:47;0.47;;;0.20;;
2548;SDS011;1284;53.520;10.248;2022-10-16T12:41:24;2.00;;;0.35;;
2548;SDS011;1284;53.520;10.248;2022-10-16T12:43:49;0.40;;;0.20;;
2548;SDS011;1284;53.520;10.248;2022-10-16T12:48:41;0.80;;;0.30;;
2548;SDS011;1284;53.520;10.248;2022-10-16T12:51:21;0.50;;;0.25;;
2548;SDS011;1284;53.520;10.248;2022-10-16T12:54:01;0.88;;;0.30;;
2548;SDS011;1284;53.520;10.248;2022-10-16T12:56:56;0.50;;;0.30;;
2548;SDS011;1284;53.520;10.248;2022-10-16T13:20:55;0.20;;;0.10;;
2548;SDS011;1284;53.520;10.248;2022-10-16T13:26:23;0.80;;;0.20;;
2548;SDS011;1284;53.520;10.248;2022-10-16T13:28:51;1.27;;;0.13;;
2548;SDS011;1284;53.520;10.248;2022-10-16T13:31:18;0.47;;;0.30;;
2548;SDS011;1284;53.520;10.248;2022-10-16T13:33:49;0.22;;;0.22;;
2548;SDS011;1284;53.520;10.248;2022-10-16T13:36:21;0.32;;;0.30;;
2548;SDS011;1284;53.520;10.248;2022-10-16T13:38:46;1.38;;;0.38;;
2548;SDS011;1284;53.520;10.248;2022-10-16T13:41:16;1.00;;;0.50;;
2548;SDS011;1284;53.520;10.248;2022-10-16T13:43:44;0.43;;;0.30;;
2548;SDS011;1284;53.520;10.248;2022-10-16T13:46:24;1.65;;;0.20;;
2548;SDS011;1284;53.520;10.248;2022-10-16T13:49:12;0.30;;;0.30;;
2548;SDS011;1284;53.520;10.248;2022-10-16T13:51:38;0.43;;;0.10;;
2548;SDS011;1284;53.520;10.248;2022-10-16T13:54:03;6.93;;;0.30;;
2548;SDS011;1284;53.520;10.248;2022-10-16T13:56:29;1.00;;;0.20;;
2548;SDS011;1284;53.520;10.248;2022-10-16T13:59:04;1.38;;;0.20;;
2548;SDS011;1284;53.520;10.248;2022-10-16T14:01:41;0.10;;;0.10;;
2548;SDS011;1284;53.520;10.248;2022-10-16T14:04:09;0.30;;;0.30;;
2548;SDS011;1284;53.520;10.248;2022-10-16T14:06:42;2.47;;;0.40;;
2548;SDS011;1284;53.520;10.248;2022-10-16T14:09:28;0.95;;;0.30;;
2548;SDS011;1284;53.520;10.248;2022-10-16T14:11:56;0.32;;;0.30;;
2548;SDS011;1284;53.520;10.248;2022-10-16T14:14:25;0.35;;;0.20;;
2548;SDS011;1284;53.520;10.248;2022-10-16T14:16:55;0.93;;;0.60;;
2548;SDS011;1284;53.520;10.248;2022-10-16T14:19:22;1.25;;;0.20;;
2548;SDS011;1284;53.520;10.248;2022-10-16T14:21:51;0.80;;;0.35;;
2548;SDS011;1284;53.520;10.248;2022-10-16T14:24:27;0.30;;;0.20;;
2548;SDS011;1284;53.520;10.248;2022-10-16T14:27:00;2.33;;;0.45;;
2548;SDS011;1284;53.520;10.248;2022-10-16T14:29:27;0.77;;;0.52;;
2548;SDS011;1284;53.520;10.248;2022-10-16T14:32:04;1.60;;;0.50;;
2548;SDS011;1284;53.520;10.248;2022-10-16T14:34:35;3.22;;;0.57;;
2548;SDS011;1284;53.520;10.248;2022-10-16T14:39:32;1.88;;;0.20;;
2548;SDS011;1284;53.520;10.248;2022-10-16T14:41:58;0.40;;;0.40;;
2548;SDS011;1284;53.520;10.248;2022-10-16T14:44:33;3.00;;;0.73;;
2548;SDS011;1284;53.520;10.248;2022-10-16T14:47:05;1.15;;;0.60;;
2548;SDS011;1284;53.520;10.248;2022-10-16T14:49:33;0.50;;;0.40;;
2548;SDS011;1284;53.520;10.248;2022-10-16T14:51:59;0.98;;;0.30;;
2548;SDS011;1284;53.520;10.248;2022-10-16T14:54:26;0.20;;;0.20;;
2548;SDS011;1284;53.520;10.248;2022-10-16T14:56:58;0.82;;;0.75;;
2548;SDS011;1284;53.520;10.248;2022-10-16T14:59:57;0.00;;;0.00;;
2548;SDS011;1284;53.520;10.248;2022-10-16T15:02:22;0.28;;;0.28;;
2548;SDS011;1284;53.520;10.248;2022-10-16T15:04:50;1.63;;;0.52;;
2548;SDS011;1284;53.520;10.248;2022-10-16T15:07:15;0.43;;;0.10;;
2548;SDS011;1284;53.520;10.248;2022-10-16T15:09:41;0.55;;;0.20;;
2548;SDS011;1284;53.520;10.248;2022-10-16T15:12:06;0.20;;;0.20;;
2548;SDS011;1284;53.520;10.248;2022-10-16T15:14:32;1.30;;;0.50;;
2548;SDS011;1284;53.520;10.248;2022-10-16T15:16:57;1.83;;;0.30;;
2548;SDS011;1284;53.520;10.248;2022-10-16T15:19:23;1.85;;;0.38;;
2548;SDS011;1284;53.520;10.248;2022-10-16T15:21:48;2.28;;;0.38;;
2548;SDS011;1284;53.520;10.248;2022-10-16T15:24:14;0.30;;;0.20;;
2548;SDS011;1284;53.520;10.248;2022-10-16T15:26:43;1.40;;;0.43;;
2548;SDS011;1284;53.520;10.248;2022-10-16T15:29:11;0.20;;;0.20;;
2548;SDS011;1284;53.520;10.248;2022-10-16T15:31:37;0.73;;;0.38;;
2548;SDS011;1284;53.520;10.248;2022-10-16T15:34:02;0.40;;;0.20;;
2548;SDS011;1284;53.520;10.248;2022-10-16T15:36:36;2.33;;;0.50;;
2548;SDS011;1284;53.520;10.248;2022-10-16T15:39:03;1.27;;;0.43;;
2548;SDS011;1284;53.520;10.248;2022-10-16T15:41:30;1.13;;;0.47;;
2548;SDS011;1284;53.520;10.248;2022-10-16T15:43:56;1.45;;;0.40;;
2548;SDS011;1284;53.520;10.248;2022-10-16T15:46:22;1.00;;;0.40;;
2548;SDS011;1284;53.520;10.248;2022-10-16T15:48:49;1.25;;;0.60;;
2548;SDS011;1284;53.520;10.248;2022-10-16T15:51:16;1.65;;;0.20;;
2548;SDS011;1284;53.520;10.248;2022-10-16T15:53:42;1.30;;;0.35;;
2548;SDS011;1284;53.520;10.248;2022-10-16T15:56:09;1.27;;;0.60;;
2548;SDS011;1284;53.520;10.248;2022-10-16T15:58:37;0.45;;;0.28;;
2548;SDS011;1284;53.520;10.248;2022-10-16T16:01:03;3.13;;;0.40;;
2548;SDS011;1284;53.520;10.248;2022-10-16T16:03:29;0.82;;;0.30;;
2548;SDS011;1284;53.520;10.248;2022-10-16T16:05:56;3.58;;;0.32;;
2548;SDS011;1284;53.520;10.248;2022-10-16T16:08:21;2.03;;;0.63;;
2548;SDS011;1284;53.520;10.248;2022-10-16T16:10:57;0.82;;;0.20;;
2548;SDS011;1284;53.520;10.248;2022-10-16T16:13:24;1.17;;;0.30;;
2548;SDS011;1284;53.520;10.248;2022-10-16T16:15:49;2.15;;;0.22;;
2548;SDS011;1284;53.520;10.248;2022-10-16T16:18:14;4.05;;;0.60;;
2548;SDS011;1284;53.520;10.248;2022-10-16T16:20:40;0.20;;;0.20;;
2548;SDS011;1284;53.520;10.248;2022-10-16T16:23:05;0.88;;;0.30;;
2548;SDS011;1284;53.520;10.248;2022-10-16T16:25:31;0.98;;;0.40;;
2548;SDS011;1284;53.520;10.248;2022-10-16T16:27:56;2.50;;;0.65;;
2548;SDS011;1284;53.520;10.248;2022-10-16T16:30:22;3.13;;;0.30;;
2548;SDS011;1284;53.520;10.248;2022-10-16T16:32:47;0.65;;;0.50;;
2548;SDS011;1284;53.520;10.248;2022-10-16T16:35:13;1.90;;;0.65;;
2548;SDS011;1284;53.520;10.248;2022-10-16T16:37:38;0.93;;;0.63;;
2548;SDS011;1284;53.520;10.248;2022-10-16T16:40:04;3.17;;;0.50;;
2548;SDS011;1284;53.520;10.248;2022-10-16T16:42:30;3.25;;;0.85;;
2548;SDS011;1284;53.520;10.248;2022-10-16T16:44:55;1.05;;;0.65;;
2548;SDS011;1284;53.520;10.248;2022-10-16T16:47:21;5.15;;;0.80;;
2548;SDS011;1284;53.520;10.248;2022-10-16T16:49:47;4.57;;;1.80;;
2548;SDS011;1284;53.520;10.248;2022-10-16T16:52:13;3.00;;;1.52;;
2548;SDS011;1284;53.520;10.248;2022-10-16T16:54:39;4.25;;;1.40;;
2548;SDS011;1284;53.520;10.248;2022-10-16T16:57:04;2.92;;;1.08;;
2548;SDS011;1284;53.520;10.248;2022-10-16T16:59:30;3.65;;;1.33;;
2548;SDS011;1284;53.520;10.248;2022-10-16T17:01:58;2.70;;;1.52;;
2548;SDS011;1284;53.520;10.248;2022-10-16T17:04:24;2.45;;;1.13;;
2548;SDS011;1284;53.520;10.248;2022-10-16T17:06:51;2.45;;;1.17;;
2548;SDS011;1284;53.520;10.248;2022-10-16T17:09:18;2.05;;;0.98;;
2548;SDS011;1284;53.520;10.248;2022-10-16T17:11:43;2.20;;;1.10;;
2548;SDS011;1284;53.520;10.248;2022-10-16T17:14:10;1.70;;;1.08;;